Time;durP1;ratioP1;P1;durP2;ratioP2;P2;SDS_P1;SDS_P2;PMS_P1;PMS_P2;Temp;Humidity;BMP_temperature;BMP_pressure;BME280_temperature;BME280_humidity;BME280_pressure;Samples;Min_cycle;Max_cycle;Signal;HPM_P1;HPM_P2
2023/09/07 00:01:08;;;;;;;4.93;3.15;;;20.90;99.90;;;;;;4992178;28;20038;-75
2023/09/07 00:03:33;;;;;;;7.07;3.50;;;20.80;99.90;;;;;;4974986;28;20038;-75
2023/09/07 00:05:59;;;;;;;6.50;3.03;;;20.80;99.90;;;;;;4987346;28;20077;-75
2023/09/07 00:08:25;;;;;;;7.03;3.53;;;20.70;99.90;;;;;;4991480;28;20045;-74
2023/09/07 00:10:51;;;;;;;4.95;3.45;;;20.70;99.90;;;;;;4989967;28;20049;-75
2023/09/07 00:13:16;;;;;;;4.05;3.35;;;20.60;99.90;;;;;;4991125;28;20046;-75
2023/09/07 00:15:42;;;;;;;5.55;3.80;;;20.60;99.90;;;;;;4991039;28;20035;-75
2023/09/07 00:18:08;;;;;;;4.65;3.65;;;20.50;99.90;;;;;;4991243;28;20070;-75
2023/09/07 00:20:34;;;;;;;5.70;3.58;;;20.50;99.90;;;;;;4990809;28;20092;-75
2023/09/07 00:23:00;;;;;;;5.40;3.22;;;20.50;99.90;;;;;;4985047;28;20042;-75
2023/09/07 00:25:26;;;;;;;6.45;3.90;;;20.40;99.90;;;;;;4989773;28;20125;-75
2023/09/07 00:27:52;;;;;;;5.78;3.42;;;20.30;99.90;;;;;;4991327;28;20065;-75
2023/09/07 00:30:17;;;;;;;4.85;3.45;;;20.30;99.90;;;;;;4990947;28;20048;-75
2023/09/07 00:32:43;;;;;;;4.57;3.30;;;20.30;99.90;;;;;;4984393;28;20545;-75
2023/09/07 00:35:08;;;;;;;6.60;3.20;;;20.20;99.90;;;;;;4990639;28;20042;-75
2023/09/07 00:37:34;;;;;;;6.00;3.70;;;20.20;99.90;;;;;;4989261;28;20049;-75
2023/09/07 00:40:00;;;;;;;3.90;3.50;;;20.10;99.90;;;;;;4991081;28;20096;-75
2023/09/07 00:42:25;;;;;;;4.03;3.63;;;20.10;99.90;;;;;;4989544;28;20038;-75
2023/09/07 00:44:51;;;;;;;4.50;3.45;;;20.10;99.90;;;;;;4990603;28;20030;-75
2023/09/07 00:47:17;;;;;;;5.10;4.00;;;20.10;99.90;;;;;;4991256;28;20112;-75
2023/09/07 00:49:43;;;;;;;6.65;3.83;;;20.10;99.90;;;;;;4990340;28;20077;-74
2023/09/07 00:52:09;;;;;;;6.70;4.13;;;20.00;99.90;;;;;;4990061;28;20092;-75
2023/09/07 00:54:38;;;;;;;4.80;3.92;;;20.00;99.90;;;;;;4990538;28;20034;-75
2023/09/07 00:57:04;;;;;;;5.93;4.13;;;19.90;99.90;;;;;;4974179;28;20038;-75
2023/09/07 00:59:31;;;;;;;5.22;3.55;;;19.80;99.90;;;;;;4971682;28;20046;-75
2023/09/07 01:01:57;;;;;;;7.20;3.95;;;19.80;99.90;;;;;;4996567;28;20129;-74
2023/09/07 01:04:23;;;;;;;7.30;3.83;;;19.70;99.90;;;;;;4989012;28;20121;-74
2023/09/07 01:06:57;;;;;;;6.68;3.60;;;19.70;99.90;;;;;;4988341;28;20596;-75
2023/09/07 01:09:26;;;;;;;5.80;4.20;;;19.60;99.90;;;;;;4989322;28;20042;-74
2023/09/07 01:11:52;;;;;;;4.57;3.42;;;19.60;99.90;;;;;;4990523;28;20093;-75
2023/09/07 01:14:18;;;;;;;5.15;3.70;;;19.50;99.90;;;;;;4990501;28;20065;-75
2023/09/07 01:16:44;;;;;;;4.40;3.70;;;19.50;99.90;;;;;;4990635;28;20077;-75
2023/09/07 01:19:10;;;;;;;6.18;3.55;;;19.50;99.90;;;;;;4973328;28;20043;-75
2023/09/07 01:21:37;;;;;;;7.03;4.03;;;19.40;99.90;;;;;;4987695;28;20034;-75
2023/09/07 01:24:08;;;;;;;8.05;3.95;;;19.40;99.90;;;;;;4983307;28;20411;-75
2023/09/07 01:26:35;;;;;;;5.53;3.78;;;19.30;99.90;;;;;;4989883;28;20100;-75
2023/09/07 01:29:01;;;;;;;6.30;3.58;;;19.30;99.90;;;;;;4989080;28;20049;-75
2023/09/07 01:31:27;;;;;;;6.05;3.85;;;19.30;99.90;;;;;;4991349;28;20034;-75
2023/09/07 01:33:52;;;;;;;4.63;3.97;;;19.20;99.90;;;;;;5005848;28;20092;-74
2023/09/07 01:36:18;;;;;;;5.72;4.03;;;19.20;99.90;;;;;;4986623;28;20085;-75
2023/09/07 01:38:43;;;;;;;6.60;4.25;;;19.20;99.90;;;;;;4987491;28;20121;-75
2023/09/07 01:41:09;;;;;;;5.00;3.80;;;19.10;99.90;;;;;;4990159;28;20490;-74
2023/09/07 01:43:35;;;;;;;4.72;3.90;;;19.10;99.90;;;;;;4990594;28;20034;-74
2023/09/07 01:46:01;;;;;;;5.63;4.00;;;19.10;99.90;;;;;;4989465;28;20613;-74
2023/09/07 01:48:26;;;;;;;4.80;3.90;;;19.00;99.90;;;;;;4990798;28;20058;-75
2023/09/07 01:50:53;;;;;;;6.80;3.83;;;19.00;99.90;;;;;;4988962;28;20046;-74
2023/09/07 01:53:19;;;;;;;4.18;3.50;;;19.00;99.90;;;;;;4989890;28;20153;-74
2023/09/07 01:55:45;;;;;;;5.72;4.13;;;19.00;99.90;;;;;;4989388;28;20042;-74
2023/09/07 01:58:10;;;;;;;10.63;4.47;;;19.00;99.90;;;;;;4989067;28;20118;-74
2023/09/07 02:00:38;;;;;;;5.53;4.03;;;19.00;99.90;;;;;;4989879;28;20046;-75
2023/09/07 02:03:04;;;;;;;5.32;3.90;;;19.00;99.90;;;;;;4989862;28;20058;-74
2023/09/07 02:05:32;;;;;;;6.70;4.15;;;19.00;99.90;;;;;;4990337;28;20050;-74
2023/09/07 02:07:58;;;;;;;9.63;4.30;;;18.90;99.90;;;;;;4988141;28;20042;-74
2023/09/07 02:10:23;;;;;;;8.65;4.45;;;18.90;99.90;;;;;;4989773;28;20064;-75
2023/09/07 02:12:49;;;;;;;5.38;4.30;;;18.90;99.90;;;;;;4989548;28;20038;-75
2023/09/07 02:15:14;;;;;;;5.35;4.05;;;18.90;99.90;;;;;;4989904;28;20043;-75
2023/09/07 02:17:40;;;;;;;6.18;4.20;;;18.80;99.90;;;;;;4989348;28;20101;-75
2023/09/07 02:20:10;;;;;;;6.03;4.60;;;18.80;99.90;;;;;;4992483;28;20534;-75
2023/09/07 02:22:36;;;;;;;4.53;4.00;;;18.80;99.90;;;;;;4993162;28;20050;-75
2023/09/07 02:25:03;;;;;;;6.82;4.60;;;18.80;99.90;;;;;;4993396;28;20070;-75
2023/09/07 02:27:28;;;;;;;6.03;4.88;;;18.80;99.90;;;;;;4992967;28;20042;-75
2023/09/07 02:29:54;;;;;;;6.40;4.45;;;18.70;99.90;;;;;;4994028;28;20542;-75
2023/09/07 02:32:19;;;;;;;5.40;4.30;;;18.60;99.90;;;;;;4994283;28;20042;-75
2023/09/07 02:34:45;;;;;;;7.57;4.43;;;18.60;99.90;;;;;;4994020;28;20046;-75
2023/09/07 02:37:10;;;;;;;4.90;4.38;;;18.60;99.90;;;;;;4993072;28;20042;-75
2023/09/07 02:39:36;;;;;;;6.97;4.70;;;18.50;99.90;;;;;;4991811;28;20055;-75
2023/09/07 02:42:01;;;;;;;7.57;4.50;;;18.40;99.90;;;;;;4992543;28;20057;-75
2023/09/07 02:44:27;;;;;;;4.63;4.22;;;18.40;99.90;;;;;;4994248;28;20042;-75
2023/09/07 02:46:52;;;;;;;5.38;4.45;;;18.30;99.90;;;;;;4991094;28;20057;-75
2023/09/07 02:49:18;;;;;;;6.93;4.63;;;18.30;99.90;;;;;;4991206;28;20049;-75
2023/09/07 02:51:44;;;;;;;7.65;4.82;;;18.20;99.90;;;;;;4992700;28;20046;-75
2023/09/07 02:54:10;;;;;;;7.22;4.78;;;18.20;99.90;;;;;;4991087;28;20085;-75
2023/09/07 02:56:35;;;;;;;7.00;4.43;;;18.20;99.90;;;;;;4992286;28;20038;-75
2023/09/07 02:59:01;;;;;;;5.05;4.32;;;18.10;99.90;;;;;;4992479;28;20046;-74
2023/09/07 03:01:26;;;;;;;6.10;4.80;;;18.10;99.90;;;;;;4992905;28;20042;-75
2023/09/07 03:03:52;;;;;;;7.78;4.97;;;18.10;99.90;;;;;;4992544;28;20125;-75
2023/09/07 03:06:18;;;;;;;5.78;4.40;;;18.10;99.90;;;;;;4992900;28;20039;-75
2023/09/07 03:08:44;;;;;;;5.20;4.63;;;18.10;99.90;;;;;;4992445;28;20133;-75
2023/09/07 03:11:10;;;;;;;6.18;4.47;;;18.10;99.90;;;;;;4978974;28;20053;-75
2023/09/07 03:13:35;;;;;;;9.27;4.93;;;18.10;99.90;;;;;;4990629;28;20067;-75
2023/09/07 03:16:03;;;;;;;6.70;4.95;;;18.10;99.90;;;;;;4992340;28;20043;-75
2023/09/07 03:18:29;;;;;;;5.32;4.22;;;18.10;99.90;;;;;;4993131;28;20140;-75
2023/09/07 03:20:57;;;;;;;6.68;4.88;;;18.10;99.90;;;;;;4991993;28;20545;-75
2023/09/07 03:23:23;;;;;;;5.57;4.78;;;18.00;99.90;;;;;;4992665;28;20035;-75
2023/09/07 03:25:48;;;;;;;5.50;4.70;;;18.00;99.90;;;;;;4991633;28;20108;-75
2023/09/07 03:28:14;;;;;;;5.32;4.75;;;18.00;99.90;;;;;;4991313;28;20409;-75
2023/09/07 03:30:40;;;;;;;5.88;4.80;;;17.90;99.90;;;;;;4976160;28;20049;-75
2023/09/07 03:33:06;;;;;;;10.95;5.18;;;17.90;99.90;;;;;;4992206;28;20484;-75
2023/09/07 03:35:32;;;;;;;6.40;5.03;;;17.80;99.90;;;;;;4992194;28;20034;-75
2023/09/07 03:37:57;;;;;;;5.57;4.90;;;17.80;99.90;;;;;;4992180;28;20069;-75
2023/09/07 03:40:23;;;;;;;5.97;4.50;;;17.70;99.90;;;;;;4992699;28;20089;-75
2023/09/07 03:42:49;;;;;;;6.57;4.97;;;17.60;99.90;;;;;;4992204;28;20068;-75
2023/09/07 03:45:15;;;;;;;7.55;5.30;;;17.60;99.90;;;;;;4990159;28;20141;-76
2023/09/07 03:47:41;;;;;;;7.20;4.88;;;17.60;99.90;;;;;;4990835;28;20121;-75
2023/09/07 03:50:06;;;;;;;7.35;4.97;;;17.50;99.90;;;;;;4992819;28;20408;-75
2023/09/07 03:52:32;;;;;;;7.10;4.78;;;17.50;99.90;;;;;;4991041;28;20038;-75
2023/09/07 03:54:57;;;;;;;8.95;5.45;;;17.50;99.90;;;;;;4974574;28;20054;-75
2023/09/07 03:57:25;;;;;;;6.70;4.82;;;17.50;99.90;;;;;;4991498;28;20072;-75
2023/09/07 03:59:51;;;;;;;7.57;4.93;;;17.40;99.90;;;;;;4992369;28;20042;-75
2023/09/07 04:02:17;;;;;;;6.55;5.03;;;17.40;99.90;;;;;;4992791;28;20065;-75
2023/09/07 04:04:43;;;;;;;8.25;5.18;;;17.40;99.90;;;;;;4991327;28;20034;-76
2023/09/07 04:07:09;;;;;;;6.32;5.38;;;17.40;99.90;;;;;;4989955;28;20034;-75
2023/09/07 04:09:35;;;;;;;6.65;5.18;;;17.40;99.90;;;;;;4975361;28;20575;-75
2023/09/07 04:12:00;;;;;;;6.90;5.68;;;17.40;99.90;;;;;;4990983;28;20528;-75
2023/09/07 04:14:26;;;;;;;7.28;5.30;;;17.40;99.90;;;;;;4981875;28;20103;-75
2023/09/07 04:16:52;;;;;;;6.28;5.68;;;17.40;99.90;;;;;;4988708;28;20042;-75
2023/09/07 04:19:17;;;;;;;6.00;5.40;;;17.40;99.90;;;;;;4975930;28;20050;-75
2023/09/07 04:21:43;;;;;;;6.03;5.40;;;17.40;99.90;;;;;;4992240;28;20053;-75
2023/09/07 04:24:08;;;;;;;7.10;5.15;;;17.30;99.90;;;;;;4991140;28;20034;-75
2023/09/07 04:26:34;;;;;;;7.38;5.75;;;17.30;99.90;;;;;;4990076;28;20526;-75
2023/09/07 04:29:00;;;;;;;5.68;4.85;;;17.30;99.90;;;;;;4974954;28;20116;-75
2023/09/07 04:31:27;;;;;;;8.25;5.57;;;17.30;99.90;;;;;;4988790;28;20125;-76
2023/09/07 04:33:53;;;;;;;7.38;5.40;;;17.30;99.90;;;;;;4990339;28;20038;-75
2023/09/07 04:36:19;;;;;;;12.88;6.53;;;17.30;99.90;;;;;;4991294;28;20042;-75
2023/09/07 04:38:44;;;;;;;10.95;5.40;;;17.30;99.90;;;;;;4990329;28;20061;-75
2023/09/07 04:41:11;;;;;;;6.72;5.60;;;17.30;99.90;;;;;;4990246;28;20039;-75
2023/09/07 04:43:40;;;;;;;7.38;5.47;;;17.30;99.90;;;;;;4990623;28;20125;-75
2023/09/07 04:46:06;;;;;;;6.63;5.85;;;17.30;99.90;;;;;;4988414;28;20046;-75
2023/09/07 04:48:34;;;;;;;8.70;5.63;;;17.20;99.90;;;;;;4991533;28;20045;-75
2023/09/07 04:51:04;;;;;;;7.53;5.43;;;17.20;99.90;;;;;;4990283;28;20113;-75
2023/09/07 04:53:32;;;;;;;10.10;6.05;;;17.20;99.90;;;;;;4990350;28;20130;-75
2023/09/07 04:55:58;;;;;;;10.23;5.80;;;17.20;99.90;;;;;;4989395;28;20129;-75
2023/09/07 04:58:24;;;;;;;8.07;5.60;;;17.20;99.90;;;;;;4990352;28;20509;-75
2023/09/07 05:00:50;;;;;;;8.07;5.80;;;17.10;99.90;;;;;;4990345;28;20034;-75
2023/09/07 05:03:16;;;;;;;8.25;5.65;;;17.10;99.90;;;;;;4990118;28;20042;-75
2023/09/07 05:05:42;;;;;;;8.18;5.68;;;17.10;99.90;;;;;;4990006;28;20038;-75
2023/09/07 05:08:07;;;;;;;7.22;5.60;;;17.00;99.90;;;;;;4991236;28;20045;-75
2023/09/07 05:10:34;;;;;;;9.65;5.68;;;17.00;99.90;;;;;;4989386;28;20050;-75
2023/09/07 05:12:59;;;;;;;6.95;5.80;;;17.10;99.90;;;;;;4986079;28;20074;-75
2023/09/07 05:15:25;;;;;;;8.52;5.90;;;17.00;99.90;;;;;;4986975;28;20074;-75
2023/09/07 05:17:51;;;;;;;7.55;5.78;;;17.00;99.90;;;;;;5006137;28;20046;-75
2023/09/07 05:20:17;;;;;;;8.93;5.82;;;17.10;99.90;;;;;;4985337;28;20042;-75
2023/09/07 05:22:43;;;;;;;7.95;6.18;;;17.10;99.90;;;;;;4987952;28;20038;-74
2023/09/07 05:25:09;;;;;;;8.63;6.05;;;17.10;99.90;;;;;;4988620;28;20053;-75
2023/09/07 05:27:35;;;;;;;8.00;6.00;;;17.10;99.90;;;;;;4990544;28;20042;-76
2023/09/07 05:30:01;;;;;;;6.05;5.30;;;17.20;99.90;;;;;;4991024;28;20391;-75
2023/09/07 05:32:27;;;;;;;9.52;6.53;;;17.20;99.90;;;;;;4988666;28;20197;-75
2023/09/07 05:34:53;;;;;;;7.05;5.70;;;17.30;99.90;;;;;;4987981;28;20761;-75
2023/09/07 05:37:18;;;;;;;10.93;6.70;;;17.30;99.90;;;;;;4989443;28;20189;-75
2023/09/07 05:39:44;;;;;;;9.43;6.50;;;17.40;99.90;;;;;;4990526;28;20034;-75
2023/09/07 05:42:10;;;;;;;10.35;6.68;;;17.50;99.90;;;;;;4990783;28;20042;-75
2023/09/07 05:44:35;;;;;;;10.13;6.70;;;17.60;99.90;;;;;;4986188;28;20063;-75
2023/09/07 05:47:02;;;;;;;8.10;6.10;;;17.60;99.90;;;;;;4986281;28;20042;-75
2023/09/07 05:49:27;;;;;;;8.32;6.47;;;17.70;99.90;;;;;;4969218;28;20040;-75
2023/09/07 05:51:53;;;;;;;7.65;6.85;;;17.80;99.90;;;;;;4984653;28;20501;-75
2023/09/07 05:54:19;;;;;;;8.25;6.80;;;17.90;99.90;;;;;;4987275;28;20034;-76
2023/09/07 05:56:44;;;;;;;9.13;6.53;;;17.90;99.90;;;;;;4988539;28;20433;-75
2023/09/07 05:59:10;;;;;;;10.40;6.72;;;18.00;99.90;;;;;;4988469;28;20043;-76
2023/09/07 06:01:36;;;;;;;8.77;6.72;;;18.10;99.90;;;;;;4986777;28;20049;-76
2023/09/07 06:04:01;;;;;;;9.55;7.10;;;18.20;99.90;;;;;;4985099;28;20786;-76
2023/09/07 06:06:27;;;;;;;8.00;7.20;;;18.20;99.90;;;;;;4987670;28;20044;-76
2023/09/07 06:08:52;;;;;;;7.82;6.70;;;18.30;99.90;;;;;;4988877;28;20081;-75
2023/09/07 06:11:18;;;;;;;9.73;6.75;;;18.30;99.90;;;;;;4987311;28;20522;-76
2023/09/07 06:13:43;;;;;;;8.73;6.72;;;18.40;99.90;;;;;;4985128;28;20739;-75
2023/09/07 06:16:09;;;;;;;10.88;6.80;;;18.50;99.90;;;;;;4983578;28;20060;-76
2023/09/07 06:18:34;;;;;;;10.48;7.10;;;18.60;99.90;;;;;;4985899;28;20426;-74
2023/09/07 06:21:00;;;;;;;10.45;7.55;;;18.60;99.90;;;;;;4984812;28;20520;-75
2023/09/07 06:23:25;;;;;;;12.13;7.97;;;18.70;99.90;;;;;;4990072;28;20038;-76
2023/09/07 06:25:51;;;;;;;12.48;7.85;;;18.80;99.90;;;;;;4988590;28;20038;-76
2023/09/07 06:28:17;;;;;;;12.32;8.05;;;18.90;99.90;;;;;;4990125;28;20092;-76
2023/09/07 06:30:42;;;;;;;8.68;7.43;;;18.90;99.90;;;;;;4970676;28;20125;-76
2023/09/07 06:33:08;;;;;;;10.88;7.40;;;19.00;99.90;;;;;;4990061;28;20035;-75
2023/09/07 06:35:34;;;;;;;9.00;7.50;;;19.10;99.90;;;;;;4989314;28;20094;-75
2023/09/07 06:37:59;;;;;;;11.02;8.10;;;19.10;99.90;;;;;;4987493;28;20099;-76
2023/09/07 06:40:25;;;;;;;9.55;7.38;;;19.20;99.90;;;;;;4994153;28;20040;-75
2023/09/07 06:42:52;;;;;;;10.45;7.75;;;19.30;99.90;;;;;;4989159;28;20050;-75
2023/09/07 06:45:18;;;;;;;8.77;7.88;;;19.30;99.90;;;;;;4986707;28;20038;-76
2023/09/07 06:47:43;;;;;;;12.00;8.10;;;19.40;99.90;;;;;;4988211;28;20532;-76
2023/09/07 06:50:10;;;;;;;8.43;7.40;;;19.50;99.90;;;;;;4988773;28;20097;-75
2023/09/07 06:52:35;;;;;;;8.85;7.72;;;19.50;99.90;;;;;;4972391;28;20034;-77
2023/09/07 06:55:01;;;;;;;9.07;7.47;;;19.60;99.90;;;;;;4989803;28;20046;-75
2023/09/07 06:57:27;;;;;;;10.75;7.78;;;19.80;99.90;;;;;;4987971;28;20046;-76
2023/09/07 06:59:52;;;;;;;10.27;7.55;;;19.90;99.90;;;;;;4988004;28;20064;-76
2023/09/07 07:02:18;;;;;;;11.65;7.60;;;20.00;99.90;;;;;;5002048;28;20085;-76
2023/09/07 07:04:45;;;;;;;8.93;7.90;;;20.10;99.90;;;;;;4989806;28;20187;-76
2023/09/07 07:07:11;;;;;;;8.40;7.30;;;20.20;99.90;;;;;;4993417;28;20409;-75
2023/09/07 07:09:36;;;;;;;10.30;7.57;;;20.40;99.90;;;;;;5009489;28;20049;-76
2023/09/07 07:12:03;;;;;;;8.95;7.30;;;20.50;99.90;;;;;;4993153;28;20426;-76
2023/09/07 07:14:29;;;;;;;8.25;7.25;;;20.60;99.90;;;;;;4994415;28;20069;-76
2023/09/07 07:16:55;;;;;;;8.75;7.03;;;20.80;99.90;;;;;;4991427;28;20578;-75
2023/09/07 07:19:20;;;;;;;9.70;7.20;;;20.90;99.90;;;;;;4997791;28;20042;-76
2023/09/07 07:21:46;;;;;;;8.48;7.63;;;21.00;99.90;;;;;;4986598;28;20050;-76
2023/09/07 07:24:11;;;;;;;9.98;7.00;;;21.20;99.90;;;;;;4991660;28;20078;-76
2023/09/07 07:26:37;;;;;;;9.43;7.18;;;21.30;99.90;;;;;;4991584;28;20050;-76
2023/09/07 07:29:05;;;;;;;9.88;6.90;;;21.40;99.90;;;;;;4991435;28;20042;-76
2023/09/07 07:31:31;;;;;;;9.07;6.80;;;21.50;99.90;;;;;;4992281;28;20042;-75
2023/09/07 07:33:57;;;;;;;7.35;6.40;;;21.70;99.90;;;;;;4991100;28;20041;-76
2023/09/07 07:36:23;;;;;;;9.25;6.65;;;21.80;99.90;;;;;;4990791;28;20038;-76
2023/09/07 07:38:48;;;;;;;8.23;6.90;;;21.90;99.90;;;;;;4991034;28;20130;-76
2023/09/07 07:41:14;;;;;;;9.65;7.07;;;22.00;99.90;;;;;;4989057;28;20496;-76
2023/09/07 07:43:39;;;;;;;8.35;6.10;;;22.10;99.90;;;;;;5005831;28;20205;-76
2023/09/07 07:46:05;;;;;;;9.80;6.38;;;22.20;99.90;;;;;;4992344;28;20038;-76
2023/09/07 07:48:30;;;;;;;7.55;6.60;;;22.30;99.90;;;;;;5009062;28;20078;-76
2023/09/07 07:50:56;;;;;;;8.23;5.63;;;22.40;99.90;;;;;;4992615;28;20034;-76
2023/09/07 07:53:22;;;;;;;7.63;5.82;;;22.60;99.90;;;;;;4992957;28;20057;-76
2023/09/07 07:55:48;;;;;;;9.05;6.28;;;22.70;99.90;;;;;;4992329;28;20037;-77
2023/09/07 07:58:14;;;;;;;11.23;6.15;;;22.80;99.90;;;;;;4992616;28;20084;-76
2023/09/07 08:00:47;;;;;;;7.75;5.78;;;22.90;99.90;;;;;;4992295;28;20046;-76
2023/09/07 08:03:13;;;;;;;9.93;6.25;;;23.00;99.90;;;;;;4992851;28;20409;-77
2023/09/07 08:05:39;;;;;;;8.07;6.28;;;23.10;99.90;;;;;;4976022;28;20130;-76
2023/09/07 08:08:05;;;;;;;8.32;5.50;;;23.20;99.90;;;;;;4992414;28;20089;-76
2023/09/07 08:10:36;;;;;;;7.95;5.40;;;23.30;99.90;;;;;;4992421;28;20042;-76
2023/09/07 08:13:02;;;;;;;7.35;5.80;;;23.40;99.90;;;;;;4989280;28;20054;-77
2023/09/07 08:15:29;;;;;;;8.07;5.25;;;23.50;99.90;;;;;;4988660;28;20038;-77
2023/09/07 08:17:55;;;;;;;7.38;5.30;;;23.60;99.90;;;;;;4987075;28;20041;-76
2023/09/07 08:20:20;;;;;;;7.70;5.18;;;23.80;99.90;;;;;;4989267;28;20038;-77
2023/09/07 08:22:46;;;;;;;8.65;5.57;;;23.70;99.90;;;;;;4989429;28;20031;-76
2023/09/07 08:25:13;;;;;;;8.65;4.55;;;23.90;99.90;;;;;;4991786;28;20034;-76
2023/09/07 08:27:46;;;;;;;6.78;5.25;;;23.90;99.90;;;;;;4987801;28;20042;-76
2023/09/07 08:30:15;;;;;;;5.43;4.50;;;23.90;99.90;;;;;;4967759;28;20133;-77
2023/09/07 08:32:41;;;;;;;5.70;4.35;;;24.10;99.90;;;;;;4986522;28;20129;-76
2023/09/07 08:35:12;;;;;;;6.80;4.30;;;24.10;99.90;;;;;;4992732;28;20117;-75
2023/09/07 08:37:38;;;;;;;5.78;4.57;;;24.20;99.90;;;;;;4994457;28;20073;-75
2023/09/07 08:40:05;;;;;;;6.90;4.20;;;24.20;99.90;;;;;;4997034;28;20088;-76
2023/09/07 08:42:31;;;;;;;6.47;4.22;;;24.30;99.90;;;;;;4982653;28;20042;-76
2023/09/07 08:45:00;;;;;;;6.90;4.32;;;24.40;99.90;;;;;;4991472;28;20030;-77
2023/09/07 08:47:29;;;;;;;4.35;3.95;;;24.40;99.90;;;;;;4986345;28;20042;-76
2023/09/07 08:49:57;;;;;;;7.25;4.30;;;24.50;99.90;;;;;;4989172;28;20582;-76
2023/09/07 08:52:22;;;;;;;6.10;4.25;;;24.60;99.90;;;;;;4979201;28;20070;-76
2023/09/07 08:54:48;;;;;;;6.32;4.20;;;24.70;99.90;;;;;;4987212;28;20472;-75
2023/09/07 08:57:15;;;;;;;6.30;4.38;;;24.80;99.90;;;;;;4987160;28;20132;-76
2023/09/07 08:59:41;;;;;;;4.65;3.88;;;24.80;99.90;;;;;;4987301;28;20039;-75
2023/09/07 09:02:10;;;;;;;7.53;3.85;;;24.90;99.90;;;;;;4995235;28;20478;-76
2023/09/07 09:04:37;;;;;;;5.72;4.00;;;24.90;99.90;;;;;;4993560;28;20031;-76
2023/09/07 09:07:03;;;;;;;7.05;3.88;;;24.90;99.90;;;;;;4985373;28;20045;-75
2023/09/07 09:09:30;;;;;;;5.80;3.70;;;25.00;99.90;;;;;;4991177;28;20050;-76
2023/09/07 09:12:09;;;;;;;4.80;3.80;;;25.00;99.90;;;;;;4988443;28;20034;-76
2023/09/07 09:14:35;;;;;;;8.20;4.40;;;25.00;99.90;;;;;;4990818;28;20441;-76
2023/09/07 09:17:00;;;;;;;4.85;3.70;;;25.10;99.90;;;;;;5005711;28;20046;-77
2023/09/07 09:19:33;;;;;;;6.82;3.75;;;25.10;99.90;;;;;;5004117;28;20034;-76
2023/09/07 09:21:59;;;;;;;10.27;4.45;;;25.10;99.90;;;;;;4990068;28;20484;-76
2023/09/07 09:24:25;;;;;;;7.13;4.10;;;25.00;99.90;;;;;;4990939;28;20050;-76
2023/09/07 09:26:52;;;;;;;5.63;3.63;;;25.10;99.90;;;;;;4989255;28;20049;-75
2023/09/07 09:29:22;;;;;;;6.72;3.90;;;25.10;99.90;;;;;;4971786;28;20782;-77
2023/09/07 09:31:48;;;;;;;5.75;4.40;;;25.10;99.90;;;;;;4987757;28;20046;-76
2023/09/07 09:34:15;;;;;;;6.32;3.83;;;25.10;99.90;;;;;;4983021;28;20188;-76
2023/09/07 09:36:43;;;;;;;7.20;3.97;;;25.10;99.90;;;;;;4992998;28;20468;-75
2023/09/07 09:39:09;;;;;;;7.32;4.20;;;25.20;99.90;;;;;;4984894;28;20043;-75
2023/09/07 09:41:35;;;;;;;7.97;4.70;;;25.20;99.90;;;;;;4992050;28;20401;-75
2023/09/07 09:44:03;;;;;;;4.88;4.00;;;25.30;99.90;;;;;;4987716;28;20100;-75
2023/09/07 09:46:32;;;;;;;5.03;4.20;;;25.30;99.90;;;;;;4987756;28;20371;-77
2023/09/07 09:48:57;;;;;;;7.65;4.05;;;25.30;99.90;;;;;;4986562;28;20125;-75
2023/09/07 09:51:24;;;;;;;6.05;4.00;;;25.30;99.90;;;;;;4988176;28;20185;-76
2023/09/07 09:53:50;;;;;;;7.70;4.50;;;25.40;99.90;;;;;;4989742;28;20445;-75
2023/09/07 09:56:17;;;;;;;6.03;4.40;;;25.40;99.90;;;;;;4989681;28;20549;-76
2023/09/07 09:58:42;;;;;;;7.40;3.88;;;25.50;99.90;;;;;;4988467;28;20046;-77
2023/09/07 10:01:10;;;;;;;5.97;4.30;;;25.50;99.90;;;;;;4981980;28;20038;-79
2023/09/07 10:03:45;;;;;;;5.75;4.13;;;25.50;99.90;;;;;;4984800;28;20053;-75
2023/09/07 10:06:29;;;;;;;7.88;4.35;;;25.60;99.90;;;;;;4989252;28;20460;-76
2023/09/07 10:09:10;;;;;;;9.32;4.72;;;25.60;99.90;;;;;;4973882;28;20038;-76
2023/09/07 10:11:38;;;;;;;6.05;4.30;;;25.70;99.90;;;;;;4987673;28;20057;-76
2023/09/07 10:14:07;;;;;;;6.85;4.32;;;25.80;99.90;;;;;;4988058;28;20158;-77
2023/09/07 10:16:48;;;;;;;7.38;3.90;;;25.80;99.90;;;;;;4987512;28;20185;-77
2023/09/07 10:19:20;;;;;;;7.13;4.03;;;25.90;99.90;;;;;;4988744;28;20049;-78
2023/09/07 10:21:46;;;;;;;7.97;4.07;;;26.00;99.90;;;;;;4987467;28;20030;-78
2023/09/07 10:24:23;;;;;;;5.55;4.10;;;26.10;99.90;;;;;;4988284;28;20141;-76
2023/09/07 10:26:59;;;;;;;5.30;4.22;;;26.10;99.90;;;;;;4984424;28;20039;-76
2023/09/07 10:29:26;;;;;;;7.38;4.18;;;26.20;99.90;;;;;;4982389;28;20046;-76
2023/09/07 10:31:51;;;;;;;16.38;4.97;;;26.20;99.90;;;;;;4985645;28;20038;-77
2023/09/07 10:34:17;;;;;;;6.10;4.57;;;26.30;99.90;;;;;;5004880;28;20045;-76
2023/09/07 10:36:43;;;;;;;6.53;4.47;;;26.40;99.90;;;;;;4985419;28;20100;-76
2023/09/07 10:39:09;;;;;;;7.65;4.10;;;26.50;99.90;;;;;;4986790;28;20092;-77
2023/09/07 10:41:45;;;;;;;8.05;4.10;;;26.60;99.90;;;;;;4991670;28;20484;-76
2023/09/07 10:44:13;;;;;;;11.77;4.00;;;26.60;99.90;;;;;;4987098;28;20634;-76
2023/09/07 10:46:39;;;;;;;5.90;3.78;;;26.70;99.90;;;;;;4989405;28;20047;-75
2023/09/07 10:49:08;;;;;;;5.75;4.13;;;26.80;99.90;;;;;;4991403;28;20050;-76
2023/09/07 10:51:41;;;;;;;7.38;4.22;;;26.90;99.90;;;;;;4993188;28;20043;-76
2023/09/07 10:54:23;;;;;;;5.60;4.30;;;26.90;99.90;;;;;;4996891;28;20108;-79
2023/09/07 10:56:50;;;;;;;5.65;4.00;;;27.00;99.90;;;;;;4993372;28;20297;-76
2023/09/07 10:59:16;;;;;;;8.93;4.22;;;27.10;99.90;;;;;;4994595;28;20053;-77
2023/09/07 11:01:43;;;;;;;7.78;4.30;;;27.10;99.90;;;;;;4993906;28;20038;-76
2023/09/07 11:04:11;;;;;;;17.17;4.65;;;27.20;99.90;;;;;;4992825;28;20125;-76
2023/09/07 11:06:37;;;;;;;5.63;4.15;;;27.30;99.90;;;;;;4992032;28;20049;-76
2023/09/07 11:09:10;;;;;;;6.63;3.90;;;27.40;99.90;;;;;;4987447;28;20544;-77
2023/09/07 11:11:36;;;;;;;5.40;3.90;;;27.50;99.90;;;;;;4989137;28;20099;-77
2023/09/07 11:14:05;;;;;;;5.18;4.00;;;27.60;99.90;;;;;;4992622;28;20042;-76
2023/09/07 11:16:33;;;;;;;8.07;4.28;;;27.80;99.90;;;;;;4992250;28;20038;-75
2023/09/07 11:19:04;;;;;;;5.78;3.92;;;27.90;99.90;;;;;;4992751;28;20046;-75
2023/09/07 11:21:31;;;;;;;7.80;3.90;;;28.00;99.90;;;;;;4958449;28;20046;-76
2023/09/07 11:23:57;;;;;;;5.70;3.88;;;28.20;99.90;;;;;;4996255;28;20072;-76
2023/09/07 11:26:23;;;;;;;7.28;4.00;;;28.20;99.90;;;;;;4990253;28;20117;-76
2023/09/07 11:28:48;;;;;;;4.93;3.72;;;28.30;99.90;;;;;;4990583;28;20056;-76
2023/09/07 11:31:19;;;;;;;5.65;3.60;;;28.40;99.90;;;;;;4986603;28;20139;-76
2023/09/07 11:33:46;;;;;;;6.28;3.97;;;28.50;99.90;;;;;;5001792;28;20030;-76
2023/09/07 11:36:12;;;;;;;6.22;3.53;;;28.60;99.90;;;;;;4987533;28;20030;-77
2023/09/07 11:38:37;;;;;;;7.15;3.83;;;28.50;99.90;;;;;;4990789;28;20038;-78
2023/09/07 11:41:03;;;;;;;5.45;3.58;;;28.70;99.90;;;;;;4990602;28;20038;-77
2023/09/07 11:43:29;;;;;;;4.82;3.10;;;28.90;99.90;;;;;;4982231;28;20105;-77
2023/09/07 11:45:54;;;;;;;6.63;3.28;;;29.00;99.90;;;;;;4971174;28;20074;-78
2023/09/07 11:48:20;;;;;;;6.50;3.35;;;29.10;99.90;;;;;;4991336;28;20135;-77
2023/09/07 11:50:45;;;;;;;4.88;3.17;;;29.10;99.90;;;;;;4988826;28;20104;-77
2023/09/07 11:53:11;;;;;;;6.10;3.47;;;29.30;99.90;;;;;;4994033;28;20042;-77
2023/09/07 11:55:37;;;;;;;5.63;3.60;;;29.40;99.90;;;;;;5006776;28;20089;-78
2023/09/07 11:58:06;;;;;;;4.50;3.58;;;29.60;99.90;;;;;;4992178;28;20413;-78
2023/09/07 12:00:32;;;;;;;6.53;3.75;;;29.70;99.90;;;;;;4990722;28;20461;-77
2023/09/07 12:02:58;;;;;;;5.68;3.00;;;29.80;99.90;;;;;;4991328;28;20030;-77
2023/09/07 12:05:24;;;;;;;6.57;3.35;;;29.90;99.90;;;;;;4990646;28;20046;-76
2023/09/07 12:07:50;;;;;;;5.68;3.10;;;30.10;99.90;;;;;;4992897;28;20031;-77
2023/09/07 12:10:15;;;;;;;5.60;2.88;;;30.10;99.90;;;;;;4991678;28;20048;-77
2023/09/07 12:12:41;;;;;;;3.83;3.35;;;30.20;99.90;;;;;;4980783;28;20045;-77
2023/09/07 12:15:08;;;;;;;5.43;3.33;;;30.20;99.90;;;;;;4987912;28;20053;-78
2023/09/07 12:17:34;;;;;;;5.70;3.28;;;30.40;99.90;;;;;;4981919;28;20117;-76
2023/09/07 12:20:00;;;;;;;6.65;3.00;;;30.50;99.90;;;;;;4991811;28;20561;-77
2023/09/07 12:22:29;;;;;;;4.88;3.30;;;30.60;99.90;;;;;;5003622;28;20430;-76
2023/09/07 12:24:55;;;;;;;5.80;3.13;;;30.70;99.90;;;;;;4998545;28;20374;-78
2023/09/07 12:27:21;;;;;;;6.57;2.90;;;30.80;99.90;;;;;;4987673;28;20115;-77
2023/09/07 12:29:47;;;;;;;5.10;3.25;;;30.90;99.90;;;;;;4986163;28;20523;-79
2023/09/07 12:32:12;;;;;;;5.45;3.20;;;31.10;99.90;;;;;;4984277;28;20482;-77
2023/09/07 12:34:39;;;;;;;4.30;3.15;;;31.10;99.80;;;;;;4985733;28;20066;-77
2023/09/07 12:37:04;;;;;;;5.22;3.08;;;31.20;99.70;;;;;;4987001;28;20077;-79
2023/09/07 12:39:31;;;;;;;6.38;3.40;;;31.10;99.00;;;;;;4987539;28;20069;-79
2023/09/07 12:41:56;;;;;;;4.63;3.10;;;31.20;98.80;;;;;;4991586;28;20070;-77